<?xml version="1.0" encoding="UTF-8" standalone="no" ?>
<gpx xmlns="http://www.topografix.com/GPX/1/1" xmlns:xsi="http://www.w3.org/2001/XMLSchema-instance" xsi:schemaLocation="http://www.topografix.com/GPX/1/1 http://www.topografix.com/GPX/1/1/gpx.xsd" version="1.1" creator="VisuGPX - https://www.visugpx.com">
  <metadata>
    <name>Argentina</name>
    <desc><![CDATA[Downloaded from eMap Software Version 2.75]]></desc>
  </metadata>
  <trk>
    <name><![CDATA[Argentina_27]]></name>
    <extensions>
      <line xmlns="http://www.topografix.com/GPX/gpx_style/0/2">
        <color>ff0000</color>
        <opacity>0.78</opacity>
        <width>0.6000</width>
      </line>
    </extensions>
    <trkseg>
      <trkpt lat="-27.78884" lon="-64.24721">
        <ele>185.191162</ele>
        <time>2005-12-12T17:45:42Z</time>
      </trkpt>
      <trkpt lat="-27.78814" lon="-64.24725">
        <ele>185.671753</ele>
        <time>2005-12-12T17:45:51Z</time>
      </trkpt>
      <trkpt lat="-27.78648" lon="-64.24758">
        <ele>187.59436</ele>
        <time>2005-12-12T17:46:04Z</time>
      </trkpt>
      <trkpt lat="-27.78389" lon="-64.24807">
        <ele>188.075073</ele>
        <time>2005-12-12T17:46:20Z</time>
      </trkpt>
      <trkpt lat="-27.78251" lon="-64.24833">
        <ele>188.555786</ele>
        <time>2005-12-12T17:46:28Z</time>
      </trkpt>
      <trkpt lat="-27.78095" lon="-64.2491">
        <ele>188.555786</ele>
        <time>2005-12-12T17:46:39Z</time>
      </trkpt>
      <trkpt lat="-27.77953" lon="-64.25045">
        <ele>191.920288</ele>
        <time>2005-12-12T17:46:52Z</time>
      </trkpt>
      <trkpt lat="-27.77893" lon="-64.25105">
        <ele>191.920288</ele>
        <time>2005-12-12T17:46:59Z</time>
      </trkpt>
      <trkpt lat="-27.77852" lon="-64.25165">
        <ele>191.920288</ele>
        <time>2005-12-12T17:47:08Z</time>
      </trkpt>
      <trkpt lat="-27.77777" lon="-64.25249">
        <ele>191.920288</ele>
        <time>2005-12-12T17:47:28Z</time>
      </trkpt>
      <trkpt lat="-27.77739" lon="-64.25294">
        <ele>191.920288</ele>
        <time>2005-12-12T17:47:34Z</time>
      </trkpt>
      <trkpt lat="-27.77627" lon="-64.25423">
        <ele>191.920288</ele>
        <time>2005-12-12T17:47:48Z</time>
      </trkpt>
      <trkpt lat="-27.7758" lon="-64.25423">
        <ele>191.920288</ele>
        <time>2005-12-12T17:47:52Z</time>
      </trkpt>
      <trkpt lat="-27.77554" lon="-64.25416">
        <ele>191.920288</ele>
        <time>2005-12-12T17:47:54Z</time>
      </trkpt>
      <trkpt lat="-27.77481" lon="-64.25378">
        <ele>193.843018</ele>
        <time>2005-12-12T17:48:00Z</time>
      </trkpt>
      <trkpt lat="-27.77206" lon="-64.25165">
        <ele>194.32373</ele>
        <time>2005-12-12T17:48:22Z</time>
      </trkpt>
      <trkpt lat="-27.76943" lon="-64.24953">
        <ele>194.804321</ele>
        <time>2005-12-12T17:48:41Z</time>
      </trkpt>
      <trkpt lat="-27.76818" lon="-64.24826">
        <ele>194.32373</ele>
        <time>2005-12-12T17:48:53Z</time>
      </trkpt>
      <trkpt lat="-27.76715" lon="-64.2471">
        <ele>194.32373</ele>
        <time>2005-12-12T17:49:06Z</time>
      </trkpt>
      <trkpt lat="-27.76674" lon="-64.24659">
        <ele>194.32373</ele>
        <time>2005-12-12T17:49:17Z</time>
      </trkpt>
      <trkpt lat="-27.76661" lon="-64.2464">
        <ele>194.32373</ele>
        <time>2005-12-12T17:49:21Z</time>
      </trkpt>
      <trkpt lat="-27.76651" lon="-64.24612">
        <ele>194.804321</ele>
        <time>2005-12-12T17:49:26Z</time>
      </trkpt>
      <trkpt lat="-27.7667" lon="-64.24562">
        <ele>194.804321</ele>
        <time>2005-12-12T17:49:32Z</time>
      </trkpt>
      <trkpt lat="-27.76743" lon="-64.24455">
        <ele>194.804321</ele>
        <time>2005-12-12T17:49:42Z</time>
      </trkpt>
      <trkpt lat="-27.7684" lon="-64.24298">
        <ele>194.32373</ele>
        <time>2005-12-12T17:49:53Z</time>
      </trkpt>
      <trkpt lat="-27.7693" lon="-64.24101">
        <ele>194.32373</ele>
        <time>2005-12-12T17:50:05Z</time>
      </trkpt>
      <trkpt lat="-27.76943" lon="-64.2403">
        <ele>194.32373</ele>
        <time>2005-12-12T17:50:09Z</time>
      </trkpt>
      <trkpt lat="-27.76943" lon="-64.23816">
        <ele>194.32373</ele>
        <time>2005-12-12T17:50:21Z</time>
      </trkpt>
      <trkpt lat="-27.7685" lon="-64.23618">
        <ele>194.32373</ele>
        <time>2005-12-12T17:50:33Z</time>
      </trkpt>
      <trkpt lat="-27.76717" lon="-64.23419">
        <ele>194.32373</ele>
        <time>2005-12-12T17:50:47Z</time>
      </trkpt>
      <trkpt lat="-27.76503" lon="-64.23101">
        <ele>194.32373</ele>
        <time>2005-12-12T17:51:09Z</time>
      </trkpt>
      <trkpt lat="-27.76327" lon="-64.22805">
        <ele>194.32373</ele>
        <time>2005-12-12T17:51:25Z</time>
      </trkpt>
      <trkpt lat="-27.76106" lon="-64.22438">
        <ele>194.32373</ele>
        <time>2005-12-12T17:51:42Z</time>
      </trkpt>
      <trkpt lat="-27.75895" lon="-64.22084">
        <ele>194.32373</ele>
        <time>2005-12-12T17:51:57Z</time>
      </trkpt>
      <trkpt lat="-27.75664" lon="-64.217">
        <ele>194.32373</ele>
        <time>2005-12-12T17:52:14Z</time>
      </trkpt>
      <trkpt lat="-27.75286" lon="-64.21071">
        <ele>194.32373</ele>
        <time>2005-12-12T17:52:42Z</time>
      </trkpt>
      <trkpt lat="-27.74797" lon="-64.20241">
        <ele>194.32373</ele>
        <time>2005-12-12T17:53:20Z</time>
      </trkpt>
      <trkpt lat="-27.74531" lon="-64.19801">
        <ele>194.32373</ele>
        <time>2005-12-12T17:53:43Z</time>
      </trkpt>
      <trkpt lat="-27.74524" lon="-64.19792">
        <ele>194.32373</ele>
        <time>2005-12-12T17:53:45Z</time>
      </trkpt>
      <trkpt lat="-27.74514" lon="-64.19771">
        <ele>194.32373</ele>
        <time>2005-12-12T17:53:48Z</time>
      </trkpt>
      <trkpt lat="-27.74533" lon="-64.19743">
        <ele>194.32373</ele>
        <time>2005-12-12T17:53:52Z</time>
      </trkpt>
      <trkpt lat="-27.74627" lon="-64.19616">
        <ele>194.32373</ele>
        <time>2005-12-12T17:54:04Z</time>
      </trkpt>
      <trkpt lat="-27.74771" lon="-64.1941">
        <ele>193.843018</ele>
        <time>2005-12-12T17:54:18Z</time>
      </trkpt>
      <trkpt lat="-27.74947" lon="-64.19131">
        <ele>193.843018</ele>
        <time>2005-12-12T17:54:33Z</time>
      </trkpt>
      <trkpt lat="-27.75164" lon="-64.18769">
        <ele>193.362305</ele>
        <time>2005-12-12T17:54:50Z</time>
      </trkpt>
      <trkpt lat="-27.75383" lon="-64.18387">
        <ele>193.362305</ele>
        <time>2005-12-12T17:55:07Z</time>
      </trkpt>
      <trkpt lat="-27.75634" lon="-64.17938">
        <ele>193.362305</ele>
        <time>2005-12-12T17:55:27Z</time>
      </trkpt>
      <trkpt lat="-27.75895" lon="-64.17471">
        <ele>193.362305</ele>
        <time>2005-12-12T17:55:48Z</time>
      </trkpt>
      <trkpt lat="-27.76063" lon="-64.17162">
        <ele>193.362305</ele>
        <time>2005-12-12T17:56:02Z</time>
      </trkpt>
      <trkpt lat="-27.76279" lon="-64.16775">
        <ele>193.362305</ele>
        <time>2005-12-12T17:56:19Z</time>
      </trkpt>
      <trkpt lat="-27.76556" lon="-64.16277">
        <ele>193.362305</ele>
        <time>2005-12-12T17:56:41Z</time>
      </trkpt>
      <trkpt lat="-27.76833" lon="-64.15773">
        <ele>192.881714</ele>
        <time>2005-12-12T17:57:03Z</time>
      </trkpt>
      <trkpt lat="-27.77048" lon="-64.15383">
        <ele>193.362305</ele>
        <time>2005-12-12T17:57:20Z</time>
      </trkpt>
      <trkpt lat="-27.77309" lon="-64.14904">
        <ele>193.362305</ele>
        <time>2005-12-12T17:57:41Z</time>
      </trkpt>
      <trkpt lat="-27.7747" lon="-64.14606">
        <ele>193.362305</ele>
        <time>2005-12-12T17:57:55Z</time>
      </trkpt>
      <trkpt lat="-27.77629" lon="-64.14327">
        <ele>193.362305</ele>
        <time>2005-12-12T17:58:10Z</time>
      </trkpt>
      <trkpt lat="-27.77788" lon="-64.1405">
        <ele>193.362305</ele>
        <time>2005-12-12T17:58:23Z</time>
      </trkpt>
      <trkpt lat="-27.78093" lon="-64.13499">
        <ele>193.362305</ele>
        <time>2005-12-12T17:58:47Z</time>
      </trkpt>
      <trkpt lat="-27.78359" lon="-64.13016">
        <ele>193.843018</ele>
        <time>2005-12-12T17:59:08Z</time>
      </trkpt>
      <trkpt lat="-27.78636" lon="-64.12514">
        <ele>193.843018</ele>
        <time>2005-12-12T17:59:30Z</time>
      </trkpt>
      <trkpt lat="-27.7896" lon="-64.11919">
        <ele>194.32373</ele>
        <time>2005-12-12T17:59:56Z</time>
      </trkpt>
      <trkpt lat="-27.79211" lon="-64.11458">
        <ele>194.804321</ele>
        <time>2005-12-12T18:00:16Z</time>
      </trkpt>
      <trkpt lat="-27.79552" lon="-64.10836">
        <ele>195.284912</ele>
        <time>2005-12-12T18:00:43Z</time>
      </trkpt>
      <trkpt lat="-27.79816" lon="-64.10355">
        <ele>195.765625</ele>
        <time>2005-12-12T18:01:04Z</time>
      </trkpt>
      <trkpt lat="-27.8012" lon="-64.09804">
        <ele>196.246338</ele>
        <time>2005-12-12T18:01:28Z</time>
      </trkpt>
      <trkpt lat="-27.80393" lon="-64.09302">
        <ele>196.726929</ele>
        <time>2005-12-12T18:01:50Z</time>
      </trkpt>
      <trkpt lat="-27.80706" lon="-64.08729">
        <ele>197.20752</ele>
        <time>2005-12-12T18:02:15Z</time>
      </trkpt>
      <trkpt lat="-27.81007" lon="-64.08175">
        <ele>197.20752</ele>
        <time>2005-12-12T18:02:39Z</time>
      </trkpt>
      <trkpt lat="-27.81607" lon="-64.07033">
        <ele>197.20752</ele>
        <time>2005-12-12T18:03:28Z</time>
      </trkpt>
    </trkseg>
  </trk>
</gpx>